Time;durP1;ratioP1;P1;durP2;ratioP2;P2;SDS_P1;SDS_P2;PMS_P1;PMS_P2;Temp;Humidity;BMP_temperature;BMP_pressure;BME280_temperature;BME280_humidity;BME280_pressure;Samples;Min_cycle;Max_cycle;Signal;HPM_P1;HPM_P2
2022/06/07 00:00:53;;;;;;;7.87;5.50;;;18.40;99.90;;;18.70;74.03;94966.41;5076279;28;20868;-54
2022/06/07 00:03:21;;;;;;;8.57;5.90;;;18.40;99.90;;;18.69;73.54;94971.91;5076236;28;20463;-55
2022/06/07 00:05:49;;;;;;;12.00;5.80;;;18.40;99.90;;;18.66;74.03;94972.28;5076856;28;20474;-53
2022/06/07 00:08:18;;;;;;;5.47;5.07;;;18.40;99.90;;;18.62;73.63;94975.31;5075524;28;20458;-56
2022/06/07 00:10:45;;;;;;;10.60;5.03;;;18.30;99.90;;;18.61;73.60;94976.31;5076597;28;20477;-53
2022/06/07 00:13:13;;;;;;;10.83;5.93;;;18.30;99.90;;;18.61;73.95;94980.84;5072114;28;20465;-55
2022/06/07 00:15:40;;;;;;;10.37;5.50;;;18.30;99.90;;;18.59;74.08;94978.38;5075011;28;20482;-55
2022/06/07 00:18:08;;;;;;;5.37;4.90;;;18.30;99.90;;;18.57;73.65;94971.56;5074148;28;20462;-56
2022/06/07 00:20:35;;;;;;;8.90;5.40;;;18.30;99.90;;;18.55;74.13;94977.06;5071198;28;20502;-54
2022/06/07 00:23:04;;;;;;;7.10;6.40;;;18.20;99.90;;;18.54;74.15;94969.28;5072736;28;20458;-54
2022/06/07 00:25:33;;;;;;;6.47;5.63;;;18.20;99.90;;;18.52;74.03;94972.13;5072740;28;20474;-54
2022/06/07 00:28:00;;;;;;;6.20;5.60;;;18.20;99.90;;;18.52;74.27;94977.44;5071408;28;20473;-53
2022/06/07 00:30:28;;;;;;;12.00;5.73;;;18.20;99.90;;;18.53;74.59;94970.28;5069302;28;21075;-56
2022/06/07 00:32:55;;;;;;;23.37;5.77;;;18.20;99.90;;;18.52;74.21;94966.78;5072765;28;20501;-55
2022/06/07 00:35:23;;;;;;;6.97;5.13;;;18.20;99.90;;;18.54;74.47;94969.28;5073169;28;20547;-54
2022/06/07 00:37:50;;;;;;;9.30;5.77;;;18.20;99.90;;;18.51;74.57;94969.63;5069494;28;20459;-53
2022/06/07 00:40:18;;;;;;;6.63;5.10;;;18.20;99.90;;;18.50;74.18;94976.81;5066968;28;20503;-54
2022/06/07 00:42:47;;;;;;;8.80;5.80;;;18.20;99.90;;;18.51;74.32;94980.28;5077758;28;20481;-54
2022/06/07 00:45:15;;;;;;;11.27;5.13;;;18.20;99.90;;;18.50;74.81;94979.47;5080464;28;20610;-56
2022/06/07 00:47:43;;;;;;;6.57;5.27;;;18.20;99.90;;;18.50;74.69;94979.47;5080985;28;20454;-53
2022/06/07 00:50:16;;;;;;;9.47;6.20;;;18.20;99.90;;;18.49;74.47;94977.81;5081314;28;20857;-56
2022/06/07 00:52:45;;;;;;;8.33;5.20;;;18.20;99.90;;;18.50;74.28;94978.63;5070213;28;20914;-56
2022/06/07 00:55:12;;;;;;;8.33;6.13;;;18.20;99.90;;;18.48;74.84;94973.50;5078001;28;20482;-55
2022/06/07 00:57:41;;;;;;;7.30;5.80;;;18.20;99.90;;;18.49;75.16;94974.34;5079427;28;20822;-54
2022/06/07 01:00:13;;;;;;;13.33;5.40;;;18.20;99.90;;;18.51;75.08;94972.31;5074757;28;20495;-55
2022/06/07 01:02:40;;;;;;;10.23;5.93;;;18.20;99.90;;;18.50;74.94;94966.16;5075418;28;21020;-54
2022/06/07 01:05:09;;;;;;;14.97;6.70;;;18.20;99.90;;;18.44;74.80;94962.41;5072643;28;20570;-55
2022/06/07 01:13:05;;;;;;;5.83;5.30;;;18.20;99.90;;;18.45;74.89;94976.53;5074615;28;20449;-53
2022/06/07 01:15:34;;;;;;;14.57;6.80;;;18.10;99.90;;;18.45;74.44;94976.53;5072711;28;20484;-56
2022/06/07 01:18:01;;;;;;;6.33;5.23;;;18.10;99.90;;;18.41;74.06;94975.28;5069670;28;20447;-55
2022/06/07 01:20:29;;;;;;;8.50;5.73;;;18.10;99.90;;;18.36;74.61;94986.47;5071676;28;20497;-55
2022/06/07 01:22:58;;;;;;;6.27;5.70;;;18.10;99.90;;;18.33;74.61;94978.84;5073317;28;20459;-58
2022/06/07 01:25:25;;;;;;;6.20;5.17;;;18.10;99.90;;;18.34;74.88;94977.00;5071759;28;20475;-56
2022/06/07 01:27:52;;;;;;;7.27;5.70;;;18.00;99.90;;;18.35;75.21;94984.00;5071533;28;20458;-56
2022/06/07 01:30:20;;;;;;;7.10;5.50;;;18.00;99.90;;;18.35;75.39;94971.50;5070699;28;20730;-55
2022/06/07 01:32:47;;;;;;;14.80;5.80;;;18.00;99.90;;;18.36;74.60;94977.66;5069344;28;20470;-53
2022/06/07 01:35:15;;;;;;;5.90;5.30;;;18.00;99.90;;;18.36;75.08;94978.50;5071463;28;20479;-59
2022/06/07 01:37:42;;;;;;;7.40;5.53;;;18.00;99.90;;;18.35;74.65;94981.34;5066569;28;20485;-54
2022/06/07 01:42:57;;;;;;;10.80;6.17;;;18.00;99.90;;;18.30;74.28;94981.88;5069867;28;20446;-54
2022/06/07 01:45:25;;;;;;;5.70;5.20;;;18.00;99.90;;;18.29;74.74;94974.91;5079738;28;20998;-54
2022/06/07 01:47:52;;;;;;;14.03;5.70;;;18.00;99.90;;;18.27;74.21;94972.41;5079925;28;20464;-56
2022/06/07 01:50:19;;;;;;;8.20;5.33;;;18.00;99.90;;;18.25;74.33;94971.78;5083583;28;20501;-53
2022/06/07 01:52:47;;;;;;;9.23;6.50;;;18.00;99.90;;;18.21;73.98;94975.81;5081486;28;20872;-55
2022/06/07 01:55:15;;;;;;;6.97;5.40;;;17.90;99.90;;;18.18;74.63;94962.88;5078907;28;20487;-56
2022/06/07 01:57:43;;;;;;;6.63;5.70;;;17.90;99.90;;;18.16;74.71;94967.56;5080615;28;20462;-54
2022/06/07 02:00:12;;;;;;;10.50;5.87;;;17.90;99.90;;;18.14;74.63;94958.97;5082564;28;20478;-55
2022/06/07 02:02:39;;;;;;;13.70;6.13;;;17.90;99.90;;;18.16;74.72;94958.78;5075890;28;20833;-56
2022/06/07 02:05:07;;;;;;;7.10;6.13;;;17.90;99.90;;;18.14;74.49;94958.97;5080679;28;20477;-54
2022/06/07 02:07:35;;;;;;;5.90;5.03;;;17.80;99.90;;;18.15;75.05;94959.78;5081754;28;20450;-53
2022/06/07 02:10:02;;;;;;;6.27;5.67;;;17.90;99.90;;;18.14;74.54;94956.28;5077740;28;20479;-55
2022/06/07 02:12:31;;;;;;;7.47;6.10;;;17.80;99.90;;;18.16;74.86;94956.94;5078636;28;20463;-55
2022/06/07 02:15:00;;;;;;;6.10;5.50;;;17.90;99.90;;;18.18;75.10;94970.06;5077227;28;20478;-56
2022/06/07 02:17:28;;;;;;;5.33;4.60;;;17.90;99.90;;;18.18;75.27;94960.22;5075608;28;20961;-54
2022/06/07 02:19:56;;;;;;;5.40;4.90;;;17.90;99.90;;;18.19;75.16;94961.88;5073419;28;20474;-56
2022/06/07 02:22:23;;;;;;;6.03;5.47;;;17.90;99.90;;;18.19;74.77;94967.22;5075807;28;20892;-55
2022/06/07 02:24:51;;;;;;;6.33;5.00;;;17.90;99.90;;;18.19;74.38;94964.53;5072838;28;20501;-56
2022/06/07 02:27:19;;;;;;;5.37;4.97;;;17.90;99.90;;;18.18;74.67;94965.53;5074759;28;20458;-55
2022/06/07 02:29:49;;;;;;;11.90;6.07;;;17.90;99.90;;;18.15;74.17;94965.91;5073985;28;20494;-55
2022/06/07 02:32:19;;;;;;;20.63;5.40;;;17.90;99.90;;;18.13;74.65;94972.44;5076040;28;20458;-54
2022/06/07 02:34:47;;;;;;;7.13;5.17;;;17.80;99.90;;;18.10;74.49;94968.31;5075650;28;21013;-56
2022/06/07 02:37:14;;;;;;;7.60;4.93;;;17.80;99.90;;;18.09;74.40;94967.50;5074374;28;20923;-56
2022/06/07 02:39:41;;;;;;;6.33;5.73;;;17.80;99.90;;;18.10;74.76;94974.44;5070354;28;20486;-53
2022/06/07 02:42:09;;;;;;;12.43;6.27;;;17.80;99.90;;;18.10;74.93;94968.31;5069733;28;20884;-53
2022/06/07 02:44:37;;;;;;;6.80;5.50;;;17.80;99.90;;;18.10;74.24;94974.44;5066589;28;20909;-52
2022/06/07 02:47:06;;;;;;;8.70;5.40;;;17.80;99.90;;;18.11;74.57;94967.31;5067679;28;20459;-54
2022/06/07 02:49:34;;;;;;;9.03;5.57;;;17.80;99.90;;;18.12;74.87;94976.13;5085189;28;20470;-53
2022/06/07 02:52:01;;;;;;;11.10;6.00;;;17.80;99.90;;;18.12;74.82;94976.94;5083166;28;20459;-56
2022/06/07 02:54:28;;;;;;;14.73;5.60;;;17.80;99.90;;;18.10;73.83;94979.78;5075856;28;20478;-53
2022/06/07 02:56:56;;;;;;;6.50;5.90;;;17.80;99.90;;;18.09;74.02;94985.28;5082571;28;20544;-51
2022/06/07 02:59:23;;;;;;;9.50;5.80;;;17.80;99.90;;;18.07;73.87;94985.47;5078895;28;20495;-55
2022/06/07 03:01:51;;;;;;;12.30;5.03;;;17.80;99.90;;;18.06;73.90;94988.31;5074357;28;20842;-55
2022/06/07 03:04:20;;;;;;;6.23;5.40;;;17.80;99.90;;;18.05;73.80;94994.66;5082555;28;20515;-55
2022/06/07 03:06:47;;;;;;;7.60;5.80;;;17.80;99.90;;;18.03;73.69;94999.31;5081409;28;20459;-57
2022/06/07 03:09:14;;;;;;;6.10;5.60;;;17.80;99.90;;;18.03;74.02;95013.47;5080729;28;20983;-55
2022/06/07 03:11:42;;;;;;;9.93;5.20;;;17.80;99.90;;;18.03;74.06;95013.47;5070385;28;20476;-58
2022/06/07 03:14:09;;;;;;;8.63;5.40;;;17.80;99.90;;;18.04;73.81;95016.94;5077738;28;20454;-56
2022/06/07 03:16:36;;;;;;;5.53;4.93;;;17.80;99.90;;;18.05;73.83;95010.63;5071266;28;20460;-57
2022/06/07 03:19:04;;;;;;;7.40;4.47;;;17.80;99.90;;;18.06;73.96;94998.97;5076680;28;20459;-56
2022/06/07 03:21:33;;;;;;;5.13;4.40;;;17.80;99.90;;;18.08;74.55;95002.28;5073762;28;20495;-55
2022/06/07 03:24:00;;;;;;;14.57;5.60;;;17.80;99.90;;;18.09;73.81;95007.41;5074196;28;20463;-56
2022/06/07 03:26:29;;;;;;;9.40;5.20;;;17.80;99.90;;;18.10;74.16;95006.41;5077834;28;20466;-54
2022/06/07 03:28:57;;;;;;;6.00;4.80;;;17.80;99.90;;;18.12;74.14;95002.72;5073214;28;20451;-56
2022/06/07 03:31:24;;;;;;;6.03;4.70;;;17.80;99.90;;;18.12;73.83;95008.88;5076581;28;20544;-56
2022/06/07 03:33:51;;;;;;;8.70;5.40;;;17.80;99.90;;;18.12;73.67;94997.41;5074083;28;20451;-57
2022/06/07 03:36:20;;;;;;;9.30;5.57;;;17.80;99.90;;;18.11;73.96;95001.91;5070140;28;20478;-55
2022/06/07 03:38:49;;;;;;;7.00;6.00;;;17.80;99.90;;;18.12;73.64;95016.03;5071797;28;20491;-53
2022/06/07 03:41:18;;;;;;;6.87;6.27;;;17.80;99.90;;;18.10;72.95;95010.91;5067517;28;20914;-56
2022/06/07 03:43:45;;;;;;;5.20;4.63;;;17.80;99.90;;;18.09;73.44;95017.22;5060420;28;20505;-55
2022/06/07 03:46:14;;;;;;;8.17;5.30;;;17.80;99.90;;;18.08;73.36;95016.41;5064875;28;20478;-54
2022/06/07 03:48:41;;;;;;;7.60;6.20;;;17.80;99.90;;;18.06;73.01;95014.94;5065417;28;20447;-56
2022/06/07 03:51:09;;;;;;;9.53;6.50;;;17.80;99.90;;;18.05;73.53;95027.41;5075487;28;20878;-55
2022/06/07 03:53:36;;;;;;;8.43;6.00;;;17.80;99.90;;;18.06;74.08;95028.22;5075060;28;20450;-56
2022/06/07 03:56:06;;;;;;;10.40;6.77;;;17.70;99.90;;;18.06;73.78;95026.41;5085652;28;20861;-55
2022/06/07 03:58:34;;;;;;;10.63;6.07;;;17.80;99.90;;;18.10;74.16;95026.88;5081772;28;20452;-55
2022/06/07 04:01:02;;;;;;;5.90;5.30;;;17.80;99.90;;;18.12;74.17;95029.34;5077978;28;20485;-53
2022/06/07 04:03:30;;;;;;;14.07;10.10;;;17.80;99.90;;;18.15;73.90;95021.00;5075761;28;20959;-56
2022/06/07 04:05:57;;;;;;;15.03;8.73;;;17.80;99.90;;;18.17;73.91;95016.31;5076680;28;20471;-54
2022/06/07 04:08:25;;;;;;;11.77;7.47;;;17.90;99.90;;;18.19;74.34;95020.44;5073992;28;20995;-56
2022/06/07 04:10:54;;;;;;;8.73;5.27;;;17.90;99.90;;;18.23;73.73;95026.22;5073709;28;20547;-57
2022/06/07 04:13:24;;;;;;;9.10;5.70;;;17.90;99.90;;;18.30;74.05;95027.16;5076807;28;20457;-56
2022/06/07 04:15:51;;;;;;;9.30;5.70;;;18.00;99.90;;;18.36;73.98;95025.59;5077140;28;20470;-53
2022/06/07 04:18:18;;;;;;;22.43;6.40;;;18.00;99.90;;;18.43;74.24;95032.66;5077194;28;20970;-57
2022/06/07 04:20:46;;;;;;;7.83;6.00;;;18.10;99.90;;;18.50;73.95;95035.41;5072957;28;20486;-53
2022/06/07 04:23:15;;;;;;;9.30;6.40;;;18.20;99.90;;;18.58;73.88;95039.81;5071103;28;20454;-57
2022/06/07 04:25:43;;;;;;;9.70;7.07;;;18.20;99.90;;;18.64;73.41;95039.06;5066140;28;20493;-55
2022/06/07 04:28:10;;;;;;;15.83;6.37;;;18.30;99.90;;;18.70;73.36;95032.16;5068946;28;20826;-56
2022/06/07 04:30:42;;;;;;;8.87;5.83;;;18.40;99.90;;;18.76;73.37;95034.09;5070681;28;20474;-56
2022/06/07 04:33:09;;;;;;;11.50;7.60;;;18.40;99.90;;;18.82;73.63;95030.66;5069908;28;20450;-56
2022/06/07 04:35:37;;;;;;;21.13;8.47;;;18.50;99.90;;;18.88;73.29;95029.94;5073702;28;20478;-58
2022/06/07 04:38:04;;;;;;;17.73;8.60;;;18.50;99.90;;;18.98;73.24;95025.16;5069333;28;20872;-54
2022/06/07 04:40:31;;;;;;;21.60;8.20;;;18.60;99.90;;;19.08;73.01;95029.38;5069295;28;20470;-54
2022/06/07 04:42:59;;;;;;;30.93;7.33;;;18.70;99.90;;;19.17;72.35;95028.22;5069210;28;21010;-56
2022/06/07 04:45:26;;;;;;;41.97;9.63;;;18.80;99.90;;;19.23;72.34;95024.81;5062445;28;20550;-56
2022/06/07 04:47:55;;;;;;;18.50;7.37;;;18.90;99.90;;;19.28;72.17;95029.56;5072554;28;20462;-52
2022/06/07 04:50:22;;;;;;;8.30;5.73;;;18.90;99.90;;;19.32;71.86;95033.53;5068664;28;20487;-54
2022/06/07 04:52:50;;;;;;;7.07;6.37;;;19.00;99.90;;;19.30;71.34;95033.72;5068293;28;20458;-54
2022/06/07 04:55:17;;;;;;;15.03;7.00;;;19.00;99.90;;;19.24;70.33;95034.47;5073770;28;20486;-53
2022/06/07 04:57:45;;;;;;;8.47;6.40;;;18.90;99.90;;;19.15;70.78;95032.94;5079478;28;21068;-56
2022/06/07 05:00:15;;;;;;;18.00;6.27;;;18.90;99.90;;;19.06;70.17;95037.53;5079037;28;20493;-56
2022/06/07 05:02:43;;;;;;;7.47;6.10;;;18.80;99.90;;;19.02;71.26;95043.44;5081157;28;20572;-55
2022/06/07 05:05:12;;;;;;;17.30;7.20;;;18.70;99.90;;;18.98;71.47;95048.34;5080555;28;20509;-55
2022/06/07 05:07:39;;;;;;;21.50;7.07;;;18.70;99.90;;;18.99;71.28;95047.31;5073857;28;20450;-56
2022/06/07 05:10:09;;;;;;;18.83;7.97;;;18.70;99.90;;;18.98;72.10;95041.16;5079377;28;20470;-54
2022/06/07 05:12:36;;;;;;;24.07;7.53;;;18.70;99.90;;;19.04;71.47;95050.25;5075290;28;20465;-55
2022/06/07 05:15:05;;;;;;;16.93;9.80;;;18.70;99.90;;;19.07;71.22;95051.69;5074333;28;20466;-54
2022/06/07 05:17:32;;;;;;;20.40;10.80;;;18.70;99.90;;;19.08;71.34;95046.19;5074856;28;20442;-52
2022/06/07 05:19:59;;;;;;;15.93;10.17;;;18.80;99.90;;;19.11;71.12;95053.78;5071822;28;20496;-57
2022/06/07 05:22:28;;;;;;;21.80;10.00;;;18.80;99.90;;;19.14;71.96;95052.59;5074082;28;20490;-54
2022/06/07 05:24:55;;;;;;;25.00;11.17;;;18.80;99.90;;;19.17;71.74;95055.72;5075046;28;20882;-55
2022/06/07 05:27:24;;;;;;;23.43;11.50;;;18.80;99.90;;;19.23;71.26;95054.13;5071693;28;20508;-55
2022/06/07 05:29:53;;;;;;;21.53;11.10;;;18.90;99.90;;;19.31;71.49;95055.88;5070112;28;20564;-55
2022/06/07 05:32:20;;;;;;;19.83;10.83;;;19.00;99.90;;;19.40;71.89;95053.91;5071146;28;20841;-53
2022/06/07 05:34:48;;;;;;;24.03;11.27;;;19.00;99.90;;;19.47;71.69;95060.97;5071511;28;20479;-54
2022/06/07 05:37:16;;;;;;;28.57;14.23;;;19.10;99.90;;;19.54;71.29;95055.69;5071932;28;20950;-55
2022/06/07 05:39:46;;;;;;;18.80;12.00;;;19.20;99.90;;;19.61;71.26;95058.41;5070531;28;20981;-54
2022/06/07 05:42:14;;;;;;;22.00;12.23;;;19.30;99.90;;;19.65;70.83;95065.84;5070312;28;20490;-56
2022/06/07 05:44:41;;;;;;;27.00;13.37;;;19.30;99.90;;;19.65;70.73;95062.34;5069752;28;20843;-55
2022/06/07 05:47:08;;;;;;;20.00;12.90;;;19.30;99.90;;;19.65;70.76;95060.50;5067025;28;20454;-55
2022/06/07 05:49:36;;;;;;;17.80;10.00;;;19.30;99.90;;;19.66;70.90;95062.16;5063559;28;20467;-56
2022/06/07 05:52:04;;;;;;;14.30;10.33;;;19.30;99.90;;;19.64;70.46;95060.69;5067029;28;20450;-53
2022/06/07 05:54:32;;;;;;;20.93;11.23;;;19.30;99.90;;;19.64;70.63;95064.19;5065803;28;20486;-54
2022/06/07 05:57:01;;;;;;;18.30;11.47;;;19.30;99.90;;;19.68;71.04;95056.63;5079604;28;20450;-55
2022/06/07 05:59:28;;;;;;;13.57;9.97;;;19.30;99.90;;;19.75;71.14;95051.34;5079891;28;20466;-56
2022/06/07 06:01:55;;;;;;;15.63;10.00;;;19.40;99.90;;;19.82;70.79;95057.59;5076602;28;20485;-55
2022/06/07 06:04:24;;;;;;;20.90;13.50;;;19.50;99.90;;;19.91;70.64;95045.78;5077106;28;20461;-52
2022/06/07 06:06:52;;;;;;;21.17;14.10;;;19.50;99.90;;;19.94;70.10;95048.06;5079604;28;20459;-54
2022/06/07 06:12:06;;;;;;;17.63;13.20;;;19.60;99.90;;;20.03;70.02;95048.72;5078998;28;20478;-55
2022/06/07 06:14:34;;;;;;;27.93;13.03;;;19.70;99.90;;;20.13;70.07;95056.41;5077512;28;20474;-56
2022/06/07 06:17:01;;;;;;;21.50;12.93;;;19.80;99.90;;;20.28;69.90;95056.28;5075955;28;20438;-56
2022/06/07 06:19:28;;;;;;;22.13;13.47;;;19.90;99.90;;;20.41;69.98;95053.69;5078083;28;20474;-56
2022/06/07 06:21:56;;;;;;;18.77;13.13;;;20.00;99.90;;;20.55;69.06;95049.25;5070644;28;20494;-54
2022/06/07 06:24:23;;;;;;;36.17;13.17;;;20.20;99.90;;;20.66;68.99;95051.41;5075319;28;20458;-55
2022/06/07 06:26:54;;;;;;;19.90;13.40;;;20.20;99.90;;;20.77;68.43;95045.50;5073814;28;20458;-55
2022/06/07 06:29:24;;;;;;;15.27;11.70;;;20.30;99.90;;;20.89;68.86;95044.94;5077024;28;20588;-55
2022/06/07 06:31:51;;;;;;;20.40;11.73;;;20.50;99.90;;;21.04;68.67;95039.44;5076040;28;20550;-54
2022/06/07 06:34:19;;;;;;;17.20;13.40;;;20.60;99.90;;;21.17;67.81;95050.16;5068901;28;20458;-54
2022/06/07 06:36:47;;;;;;;19.70;12.50;;;20.70;99.90;;;21.27;67.43;95039.06;5075906;28;20504;-55
2022/06/07 06:39:15;;;;;;;27.73;14.17;;;20.80;99.90;;;21.42;67.69;95037.03;5071586;28;20459;-56
2022/06/07 06:41:45;;;;;;;20.80;14.57;;;21.00;99.90;;;21.58;67.35;95043.06;5060898;28;20478;-54
2022/06/07 06:44:12;;;;;;;23.63;13.13;;;21.10;99.90;;;21.73;67.24;95032.19;5073412;28;20452;-53
2022/06/07 06:46:42;;;;;;;26.70;13.73;;;21.30;99.90;;;21.87;66.45;95031.16;5071890;28;20447;-55
2022/06/07 06:49:11;;;;;;;21.43;14.87;;;21.50;99.90;;;22.02;66.22;95036.31;5063488;28;20447;-57
2022/06/07 06:51:38;;;;;;;16.63;13.83;;;21.60;99.80;;;22.17;66.06;95034.22;5071190;28;21198;-56
2022/06/07 06:54:06;;;;;;;25.33;14.47;;;21.70;99.60;;;22.34;66.05;95036.50;5068745;28;20459;-54
2022/06/07 06:56:33;;;;;;;18.63;14.80;;;21.90;99.40;;;22.56;65.78;95023.66;5069356;28;20455;-55
2022/06/07 06:59:01;;;;;;;24.40;14.23;;;22.10;99.50;;;22.73;64.67;95019.47;5074110;28;20527;-55
2022/06/07 07:01:30;;;;;;;20.40;14.93;;;22.20;98.60;;;22.79;63.24;95012.44;5079108;28;20500;-54
2022/06/07 07:03:58;;;;;;;37.97;16.77;;;22.30;98.00;;;22.83;63.27;95010.97;5082385;28;20461;-54
2022/06/07 07:06:26;;;;;;;21.40;13.33;;;22.40;97.80;;;22.88;63.22;95013.84;5082791;28;20851;-55
2022/06/07 07:08:55;;;;;;;21.93;14.57;;;22.50;97.80;;;22.99;63.21;95022.25;5083627;28;20454;-56
2022/06/07 07:11:24;;;;;;;20.90;14.50;;;22.50;97.80;;;23.07;63.02;95020.16;5082212;28;20502;-56
2022/06/07 07:13:54;;;;;;;15.70;14.10;;;22.60;97.60;;;23.17;63.13;95014.34;5075833;28;20481;-56
2022/06/07 07:16:23;;;;;;;17.80;13.53;;;22.70;97.60;;;23.31;63.25;95017.78;5081563;28;20654;-56
2022/06/07 07:18:51;;;;;;;18.50;13.77;;;22.80;97.80;;;23.48;62.84;95011.91;5079379;28;20471;-56
2022/06/07 07:21:21;;;;;;;17.30;13.80;;;23.00;97.10;;;23.61;61.37;95011.81;5080742;28;20549;-55
2022/06/07 07:23:49;;;;;;;23.10;14.40;;;23.10;96.70;;;23.75;61.44;95017.91;5077259;28;20485;-56
2022/06/07 07:26:18;;;;;;;17.63;14.13;;;23.30;96.70;;;23.86;61.13;95005.66;5077162;28;20466;-55
2022/06/07 07:28:45;;;;;;;19.20;14.30;;;23.40;96.30;;;23.94;60.64;95010.78;5078411;28;20458;-55
2022/06/07 07:31:14;;;;;;;23.07;15.50;;;23.40;95.80;;;24.02;61.23;95006.97;5076112;28;20662;-56
2022/06/07 07:33:42;;;;;;;20.80;16.87;;;23.50;95.80;;;24.13;60.55;95006.25;5072819;28;21035;-54
2022/06/07 07:36:10;;;;;;;20.80;14.60;;;23.60;95.60;;;24.26;60.10;94998.06;5074740;28;20478;-55
2022/06/07 07:38:40;;;;;;;17.50;13.00;;;23.70;95.10;;;24.42;60.02;94999.34;5072377;28;20450;-55
2022/06/07 07:41:19;;;;;;;24.60;15.67;;;23.90;95.30;;;24.63;59.86;94987.34;5073785;28;20474;-54
2022/06/07 07:43:46;;;;;;;14.70;12.83;;;24.10;95.10;;;24.76;59.77;94997.13;5062608;28;20893;-54
2022/06/07 07:46:14;;;;;;;24.07;14.93;;;24.20;94.80;;;24.94;59.24;94995.47;5072236;28;20466;-56
2022/06/07 07:48:41;;;;;;;22.07;15.40;;;24.40;94.70;;;25.12;59.29;94991.94;5071961;28;20446;-57
2022/06/07 07:51:14;;;;;;;17.30;13.37;;;24.50;94.70;;;25.32;59.03;94991.69;5069223;28;20470;-54
2022/06/07 07:53:43;;;;;;;21.30;15.53;;;24.70;94.20;;;25.40;58.31;94992.16;5068712;28;20437;-56
2022/06/07 07:56:10;;;;;;;23.43;17.10;;;24.90;93.70;;;25.32;57.21;94986.28;5068595;28;20528;-56
2022/06/07 07:58:38;;;;;;;24.60;14.57;;;24.80;93.00;;;25.21;57.90;94987.88;5064587;28;20453;-57
2022/06/07 08:01:09;;;;;;;18.00;13.27;;;24.70;92.90;;;25.15;58.10;94973.44;5067598;28;20471;-54
2022/06/07 08:03:38;;;;;;;16.90;13.80;;;24.70;93.30;;;25.23;58.74;94977.69;5083625;28;20513;-57
2022/06/07 08:06:07;;;;;;;23.37;13.00;;;24.70;93.80;;;25.36;58.58;94968.59;5081057;28;21091;-56
2022/06/07 08:08:35;;;;;;;15.57;13.53;;;24.80;93.90;;;25.55;58.37;94975.59;5083540;28;20445;-57
2022/06/07 08:11:03;;;;;;;20.50;14.00;;;24.90;94.00;;;25.73;57.93;94963.91;5074914;28;20474;-56
2022/06/07 08:13:31;;;;;;;20.37;11.97;;;25.10;93.30;;;25.91;57.69;94959.47;5082467;28;20454;-53
2022/06/07 08:15:58;;;;;;;24.53;12.30;;;25.30;93.20;;;26.10;57.49;94955.63;5079877;28;20466;-57
2022/06/07 08:18:26;;;;;;;20.27;12.87;;;25.60;93.10;;;26.36;56.81;94955.38;5078443;28;20446;-53
2022/06/07 08:20:58;;;;;;;30.53;17.07;;;25.70;92.80;;;26.58;56.45;94950.16;5079047;28;20461;-57
2022/06/07 08:23:25;;;;;;;19.23;12.67;;;25.90;92.30;;;26.68;55.80;94942.31;5072113;28;20476;-56
2022/06/07 08:25:53;;;;;;;20.83;10.80;;;26.10;91.50;;;26.71;54.84;94941.84;5077607;28;20481;-55
2022/06/07 08:28:22;;;;;;;20.07;11.60;;;26.20;90.60;;;26.69;54.61;94933.16;5074535;28;20459;-55
2022/06/07 08:30:50;;;;;;;12.80;11.20;;;26.10;90.20;;;26.74;53.17;94941.38;5073443;28;20482;-55
2022/06/07 08:38:51;;;;;;;12.00;10.20;;;26.50;88.10;;;27.22;52.49;94930.34;5071839;28;20961;-56
2022/06/07 08:41:26;;;;;;;17.03;12.30;;;26.70;86.50;;;27.38;52.12;94928.78;5072169;28;20470;-55
2022/06/07 08:44:02;;;;;;;17.93;10.47;;;26.80;85.90;;;27.47;51.78;94930.84;5071154;28;20493;-55
2022/06/07 08:46:33;;;;;;;10.57;9.47;;;26.90;85.20;;;27.57;51.24;94924.78;5071365;28;20485;-52
2022/06/07 08:49:01;;;;;;;12.10;9.40;;;27.00;83.30;;;27.68;51.10;94918.47;5071068;28;20605;-54
2022/06/07 08:51:29;;;;;;;12.20;9.17;;;27.10;83.40;;;27.83;51.12;94925.19;5070237;28;20999;-55
2022/06/07 08:53:59;;;;;;;16.80;8.40;;;27.30;83.20;;;27.94;50.20;94918.88;5068985;28;20822;-55
2022/06/07 08:56:29;;;;;;;16.43;6.97;;;27.40;81.20;;;28.07;50.31;94909.63;5068884;28;20467;-56
2022/06/07 08:59:00;;;;;;;16.80;7.47;;;27.50;81.40;;;28.29;50.47;94911.53;5067924;28;20447;-57
2022/06/07 09:01:32;;;;;;;7.40;6.30;;;27.70;81.80;;;28.48;49.78;94903.94;5066205;28;20488;-56
2022/06/07 09:04:14;;;;;;;12.23;7.00;;;27.90;80.90;;;28.66;49.69;94898.25;5063750;28;21025;-54
2022/06/07 09:06:43;;;;;;;12.33;7.00;;;28.10;80.10;;;28.84;49.59;94897.09;5081706;28;20449;-55
2022/06/07 09:09:11;;;;;;;8.23;6.90;;;28.20;78.50;;;29.02;48.63;94898.63;5079760;28;20825;-56
2022/06/07 09:14:32;;;;;;;19.50;4.10;;;28.50;75.50;;;29.06;47.12;94888.91;5079831;28;21017;-55
2022/06/07 09:17:01;;;;;;;6.90;4.97;;;28.50;72.00;;;29.04;46.44;94890.25;5078094;28;20200;-57
2022/06/07 09:19:30;;;;;;;11.63;5.00;;;28.50;70.60;;;29.10;46.75;94889.22;5079543;28;20658;-57
2022/06/07 09:22:00;;;;;;;7.77;4.70;;;28.60;71.70;;;29.18;45.37;94886.06;5076683;28;20208;-54
2022/06/07 09:24:32;;;;;;;5.57;4.70;;;28.60;67.50;;;29.27;46.45;94881.84;5078692;28;20269;-54
2022/06/07 09:27:15;;;;;;;5.13;4.40;;;28.70;69.00;;;29.26;44.02;94876.69;5078397;28;20572;-57
2022/06/07 09:29:49;;;;;;;4.70;4.30;;;28.70;66.30;;;29.21;46.17;94873.94;5073269;28;20610;-55
2022/06/07 09:32:18;;;;;;;17.63;5.20;;;28.70;68.10;;;29.28;46.04;94875.34;5075632;28;20199;-57
2022/06/07 09:34:52;;;;;;;7.00;5.00;;;28.70;67.80;;;29.36;45.58;94862.38;5075188;28;20219;-52
2022/06/07 09:37:33;;;;;;;7.27;5.10;;;28.80;67.20;;;29.39;44.68;94865.41;5072717;28;20291;-54
2022/06/07 09:40:29;;;;;;;8.73;4.00;;;28.80;65.60;;;29.29;43.31;94858.00;5072237;28;20816;-55
2022/06/07 09:43:03;;;;;;;6.10;4.07;;;28.80;63.70;;;29.31;44.32;94855.88;5073420;28;20228;-57
2022/06/07 09:45:36;;;;;;;6.43;4.60;;;28.70;64.80;;;29.36;43.21;94875.94;5072242;28;20223;-56
2022/06/07 09:48:21;;;;;;;5.03;4.27;;;28.80;63.20;;;29.31;43.32;94849.63;5070110;28;20226;-57
2022/06/07 09:50:56;;;;;;;4.37;3.97;;;28.80;61.40;;;29.36;43.36;94854.25;5069796;28;20239;-54
2022/06/07 09:53:23;;;;;;;4.97;4.60;;;28.80;62.80;;;29.43;42.96;94849.44;5061950;28;20197;-55
2022/06/07 09:56:04;;;;;;;5.17;3.90;;;28.90;61.50;;;29.39;42.45;94842.91;5067402;28;20786;-55
2022/06/07 09:58:43;;;;;;;5.67;5.03;;;28.90;59.90;;;29.35;42.27;94834.50;5068571;28;20195;-54
2022/06/07 10:01:18;;;;;;;12.03;7.00;;;28.80;59.80;;;29.31;39.91;94831.50;5070955;28;20226;-56
2022/06/07 10:03:48;;;;;;;12.40;7.60;;;28.80;56.80;;;29.27;40.82;94840.38;5070355;28;20220;-54
2022/06/07 10:06:22;;;;;;;36.63;29.80;;;28.80;57.60;;;29.22;42.30;94830.31;5069516;28;20712;-54
2022/06/07 10:09:15;;;;;;;9.23;5.53;;;28.70;58.40;;;29.20;40.79;94837.88;5080742;28;20668;-55
2022/06/07 10:11:54;;;;;;;7.33;4.83;;;28.60;56.90;;;29.13;41.59;94829.13;5085424;28;20203;-55
2022/06/07 10:14:29;;;;;;;4.60;4.27;;;28.60;58.70;;;29.08;42.65;94831.78;5071248;28;20676;-57
2022/06/07 10:17:15;;;;;;;4.63;4.23;;;28.60;58.80;;;28.99;41.68;94831.44;5081549;28;20425;-57
2022/06/07 10:19:48;;;;;;;8.37;3.93;;;28.50;58.00;;;28.89;41.73;94829.47;5083059;28;20587;-54
2022/06/07 10:22:35;;;;;;;6.10;5.50;;;28.40;58.50;;;28.84;39.79;94821.28;5081372;28;20203;-54
2022/06/07 10:25:11;;;;;;;5.70;5.27;;;28.40;57.20;;;28.79;41.00;94816.63;5078310;28;20224;-54
2022/06/07 10:27:43;;;;;;;6.53;3.80;;;28.30;56.80;;;28.77;42.70;94821.50;5080261;28;20203;-54
2022/06/07 10:30:23;;;;;;;4.80;4.07;;;28.30;58.30;;;28.73;41.87;94814.13;5073972;28;20224;-56
2022/06/07 10:33:24;;;;;;;5.47;5.03;;;28.20;58.20;;;28.63;40.68;94809.44;5077662;28;20203;-55
2022/06/07 10:35:58;;;;;;;8.63;4.97;;;28.20;55.60;;;28.64;42.47;94810.25;5074397;28;20727;-57
2022/06/07 10:39:07;;;;;;;5.03;4.57;;;28.10;58.40;;;28.75;41.25;94806.56;5077016;28;20204;-57
2022/06/07 10:41:41;;;;;;;5.13;4.83;;;28.20;57.40;;;28.78;41.39;94804.19;5074757;28;20449;-56